Hovedside
METAR-TAF:

METAR-TAF

Lufthavner :

Pointe-Noire, Kongo

breddegrad: 04-49S, lengdegrad: 011-54E, høyde over havet: 17 m

Gjeldene værobservasjon

Denne rapporten ble laget for 1 time og 23 minutter siden, klokken 20:00 UTC
Vind 2 kt fra Sørvest
Temperatur 26°C
Luftfuktighet 89%
Trykk 1010 hPa
Sikt 10 km eller mer
Få skyer i en høyde av 1000 ft

METAR: FCPP 182000Z 23002KT 9999 FEW010 26/24 Q1010 NOSIG

Tid: 22:23 (21:23 UTC)

Varsel

Denne rapporten ble laget for 4 timer og 23 minutter siden, klokken 17:00 UTC
Varsel gyldig fra 18. klokken 18 UTC til 19. klokken 18 UTC
Vind 7 kt fra Sør
Sikt: 9000 m
Spredte skyer i en høyde av 1300 ft
Brutte skyer i en høyde av 2300 ft
Sannsynlighet 30%
fra 19. klokken 14 UTC til 19. klokken 18 UTC
Spredte skyer i en høyde av 1400 ft
Få skyer i en høyde av 3000 ft, Bygeskyer.

TAF: FCPP 181700Z 1818/1918 18007KT 9000 SCT013 BKN023 PROB30 1914/1918 SCT014 FEW030CB

Værobservasjoner og værvarsel for over 4000 flyplasser (METAR- og TAF-rapporter).

Tilgjengelige stasjoner er representert av de røde og gule prikkene på kartet.

Hold musepekeren over prikken for å se navnet på stasjonen.

Klikk så for å se værobservasjoner og -varsler.

For å forandre kartet kan du klikke på den grønne knappen med svart kryss for å zoome inn, på den grønne knappen med strek for å zoome ut, eller på de grønne pilene for å se tilstøtende kart.


METAR-TAF: